sensor_id;sensor_type;location;lat;lon;timestamp;pressure;altitude;pressure_sealevel;temperature;humidity
47985;BME280;33753;52.912;-7.342;2023-02-15T00:02:00;100574.22;;;7.59;100.00
47985;BME280;33753;52.912;-7.342;2023-02-15T00:04:34;100565.84;;;7.63;100.00
47985;BME280;33753;52.912;-7.342;2023-02-15T00:07:15;100563.31;;;7.61;100.00
47985;BME280;33753;52.912;-7.342;2023-02-15T00:09:45;100554.53;;;7.59;100.00
47985;BME280;33753;52.912;-7.342;2023-02-15T00:12:23;100555.53;;;7.58;100.00
47985;BME280;33753;52.912;-7.342;2023-02-15T00:14:56;100564.28;;;7.60;100.00
47985;BME280;33753;52.912;-7.342;2023-02-15T00:17:26;100556.22;;;7.60;100.00
47985;BME280;33753;52.912;-7.342;2023-02-15T00:19:56;100540.22;;;7.58;100.00
47985;BME280;33753;52.912;-7.342;2023-02-15T00:22:29;100559.22;;;7.57;100.00
47985;BME280;33753;52.912;-7.342;2023-02-15T00:24:59;100567.28;;;7.57;100.00
47985;BME280;33753;52.912;-7.342;2023-02-15T00:27:31;100571.38;;;7.61;100.00
47985;BME280;33753;52.912;-7.342;2023-02-15T00:30:02;100566.59;;;7.55;100.00
47985;BME280;33753;52.912;-7.342;2023-02-15T00:32:30;100568.00;;;7.59;100.00
47985;BME280;33753;52.912;-7.342;2023-02-15T00:34:58;100567.44;;;7.55;100.00
47985;BME280;33753;52.912;-7.342;2023-02-15T00:37:26;100561.75;;;7.58;100.00
47985;BME280;33753;52.912;-7.342;2023-02-15T00:39:54;100537.38;;;7.60;100.00
47985;BME280;33753;52.912;-7.342;2023-02-15T00:42:23;100525.94;;;7.58;100.00
47985;BME280;33753;52.912;-7.342;2023-02-15T00:44:52;100526.91;;;7.57;100.00
47985;BME280;33753;52.912;-7.342;2023-02-15T00:47:21;100538.97;;;7.53;100.00
47985;BME280;33753;52.912;-7.342;2023-02-15T00:49:51;100530.06;;;7.52;100.00
47985;BME280;33753;52.912;-7.342;2023-02-15T00:52:19;100521.84;;;7.54;100.00
47985;BME280;33753;52.912;-7.342;2023-02-15T00:54:47;100521.16;;;7.52;100.00
47985;BME280;33753;52.912;-7.342;2023-02-15T00:57:15;100513.34;;;7.49;100.00
47985;BME280;33753;52.912;-7.342;2023-02-15T00:59:43;100509.66;;;7.50;100.00
47985;BME280;33753;52.912;-7.342;2023-02-15T01:02:13;100498.22;;;7.48;100.00
47985;BME280;33753;52.912;-7.342;2023-02-15T01:04:41;100500.91;;;7.48;100.00
47985;BME280;33753;52.912;-7.342;2023-02-15T01:07:09;100493.28;;;7.43;100.00
47985;BME280;33753;52.912;-7.342;2023-02-15T01:09:37;100495.84;;;7.44;100.00
47985;BME280;33753;52.912;-7.342;2023-02-15T01:12:05;100488.75;;;7.43;100.00
47985;BME280;33753;52.912;-7.342;2023-02-15T01:14:35;100488.75;;;7.43;100.00
47985;BME280;33753;52.912;-7.342;2023-02-15T01:17:04;100486.22;;;7.42;100.00
47985;BME280;33753;52.912;-7.342;2023-02-15T01:19:35;100487.88;;;7.43;100.00
47985;BME280;33753;52.912;-7.342;2023-02-15T01:22:05;100475.00;;;7.47;100.00
47985;BME280;33753;52.912;-7.342;2023-02-15T01:24:34;100466.91;;;7.47;100.00
47985;BME280;33753;52.912;-7.342;2023-02-15T01:27:02;100461.53;;;7.47;100.00
47985;BME280;33753;52.912;-7.342;2023-02-15T01:29:31;100452.47;;;7.48;100.00
47985;BME280;33753;52.912;-7.342;2023-02-15T01:31:59;100461.53;;;7.47;100.00
47985;BME280;33753;52.912;-7.342;2023-02-15T01:34:28;100455.84;;;7.50;100.00
47985;BME280;33753;52.912;-7.342;2023-02-15T01:36:58;100448.75;;;7.49;100.00
47985;BME280;33753;52.912;-7.342;2023-02-15T01:39:26;100442.00;;;7.44;100.00
47985;BME280;33753;52.912;-7.342;2023-02-15T01:41:55;100442.38;;;7.50;100.00
47985;BME280;33753;52.912;-7.342;2023-02-15T01:47:10;100431.47;;;7.51;100.00
47985;BME280;33753;52.912;-7.342;2023-02-15T01:49:40;100434.88;;;7.53;100.00
47985;BME280;33753;52.912;-7.342;2023-02-15T01:52:11;100430.31;;;7.54;100.00
47985;BME280;33753;52.912;-7.342;2023-02-15T01:54:42;100440.47;;;7.60;100.00
47985;BME280;33753;52.912;-7.342;2023-02-15T01:57:13;100433.09;;;7.62;100.00
47985;BME280;33753;52.912;-7.342;2023-02-15T01:59:44;100417.78;;;7.63;100.00
47985;BME280;33753;52.912;-7.342;2023-02-15T02:02:14;100407.56;;;7.66;100.00
47985;BME280;33753;52.912;-7.342;2023-02-15T02:04:45;100419.72;;;7.70;100.00
47985;BME280;33753;52.912;-7.342;2023-02-15T02:07:19;100412.31;;;7.72;100.00
47985;BME280;33753;52.912;-7.342;2023-02-15T02:09:48;100409.94;;;7.69;100.00
47985;BME280;33753;52.912;-7.342;2023-02-15T02:12:16;100396.03;;;7.74;100.00
47985;BME280;33753;52.912;-7.342;2023-02-15T02:14:46;100391.63;;;7.73;100.00
47985;BME280;33753;52.912;-7.342;2023-02-15T02:17:17;100385.41;;;7.72;100.00
47985;BME280;33753;52.912;-7.342;2023-02-15T02:20:03;100392.50;;;7.73;100.00
47985;BME280;33753;52.912;-7.342;2023-02-15T02:22:46;100393.88;;;7.77;100.00
47985;BME280;33753;52.912;-7.342;2023-02-15T02:25:32;100382.09;;;7.78;100.00
47985;BME280;33753;52.912;-7.342;2023-02-15T02:28:11;100392.69;;;7.80;100.00
47985;BME280;33753;52.912;-7.342;2023-02-15T02:30:54;100383.47;;;7.83;100.00
47985;BME280;33753;52.912;-7.342;2023-02-15T02:33:28;100384.19;;;7.85;100.00
47985;BME280;33753;52.912;-7.342;2023-02-15T02:36:02;100380.31;;;7.87;100.00
47985;BME280;33753;52.912;-7.342;2023-02-15T02:38:37;100385.56;;;7.89;100.00
47985;BME280;33753;52.912;-7.342;2023-02-15T02:41:12;100369.75;;;7.94;100.00
47985;BME280;33753;52.912;-7.342;2023-02-15T02:43:43;100371.31;;;7.96;100.00
47985;BME280;33753;52.912;-7.342;2023-02-15T02:46:17;100363.06;;;7.98;100.00
47985;BME280;33753;52.912;-7.342;2023-02-15T02:48:49;100366.97;;;8.04;100.00
47985;BME280;33753;52.912;-7.342;2023-02-15T02:51:17;100365.81;;;8.06;100.00
47985;BME280;33753;52.912;-7.342;2023-02-15T02:53:50;100354.88;;;8.08;100.00
47985;BME280;33753;52.912;-7.342;2023-02-15T02:56:21;100352.66;;;8.03;100.00
47985;BME280;33753;52.912;-7.342;2023-02-15T02:58:51;100336.50;;;8.03;100.00
47985;BME280;33753;52.912;-7.342;2023-02-15T03:01:24;100343.88;;;8.01;100.00
47985;BME280;33753;52.912;-7.342;2023-02-15T03:03:56;100345.41;;;8.04;100.00
47985;BME280;33753;52.912;-7.342;2023-02-15T03:06:29;100343.56;;;8.04;100.00
47985;BME280;33753;52.912;-7.342;2023-02-15T03:09:02;100340.25;;;8.10;100.00
47985;BME280;33753;52.912;-7.342;2023-02-15T03:11:32;100334.06;;;8.18;100.00
47985;BME280;33753;52.912;-7.342;2023-02-15T03:14:00;100326.19;;;8.25;100.00
47985;BME280;33753;52.912;-7.342;2023-02-15T03:16:31;100328.72;;;8.26;100.00
47985;BME280;33753;52.912;-7.342;2023-02-15T03:19:01;100307.69;;;8.30;100.00
47985;BME280;33753;52.912;-7.342;2023-02-15T03:21:32;100322.19;;;8.29;100.00
47985;BME280;33753;52.912;-7.342;2023-02-15T03:24:07;100315.97;;;8.37;100.00
47985;BME280;33753;52.912;-7.342;2023-02-15T03:26:36;100313.13;;;8.38;100.00
47985;BME280;33753;52.912;-7.342;2023-02-15T03:29:07;100309.25;;;8.41;100.00
47985;BME280;33753;52.912;-7.342;2023-02-15T03:31:37;100302.72;;;8.43;100.00
47985;BME280;33753;52.912;-7.342;2023-02-15T03:34:09;100304.69;;;8.41;100.00
47985;BME280;33753;52.912;-7.342;2023-02-15T03:36:39;100309.50;;;8.47;100.00
47985;BME280;33753;52.912;-7.342;2023-02-15T03:39:12;100317.59;;;8.47;100.00
47985;BME280;33753;52.912;-7.342;2023-02-15T03:41:43;100331.75;;;8.50;100.00
47985;BME280;33753;52.912;-7.342;2023-02-15T03:44:15;100323.97;;;8.46;100.00
47985;BME280;33753;52.912;-7.342;2023-02-15T03:46:46;100341.59;;;8.41;100.00
47985;BME280;33753;52.912;-7.342;2023-02-15T03:49:21;100334.69;;;8.38;100.00
47985;BME280;33753;52.912;-7.342;2023-02-15T03:51:51;100389.28;;;8.40;100.00
47985;BME280;33753;52.912;-7.342;2023-02-15T03:54:24;100400.34;;;8.37;100.00
47985;BME280;33753;52.912;-7.342;2023-02-15T03:57:17;100422.94;;;7.92;100.00
47985;BME280;33753;52.912;-7.342;2023-02-15T04:00:04;100443.88;;;7.62;100.00
47985;BME280;33753;52.912;-7.342;2023-02-15T04:03:04;100444.97;;;7.41;100.00
47985;BME280;33753;52.912;-7.342;2023-02-15T04:05:36;100426.59;;;7.19;100.00
47985;BME280;33753;52.912;-7.342;2023-02-15T04:08:04;100433.84;;;7.08;100.00
47985;BME280;33753;52.912;-7.342;2023-02-15T04:10:33;100449.06;;;6.90;100.00
47985;BME280;33753;52.912;-7.342;2023-02-15T04:13:18;100451.09;;;6.88;100.00
47985;BME280;33753;52.912;-7.342;2023-02-15T04:15:46;100445.19;;;6.74;100.00
47985;BME280;33753;52.912;-7.342;2023-02-15T04:18:37;100452.69;;;6.71;100.00
47985;BME280;33753;52.912;-7.342;2023-02-15T04:21:24;100455.97;;;6.65;100.00
47985;BME280;33753;52.912;-7.342;2023-02-15T04:24:10;100457.56;;;6.57;100.00
47985;BME280;33753;52.912;-7.342;2023-02-15T04:26:56;100466.31;;;6.50;100.00
47985;BME280;33753;52.912;-7.342;2023-02-15T04:29:25;100449.22;;;6.51;100.00
47985;BME280;33753;52.912;-7.342;2023-02-15T04:31:54;100445.88;;;6.39;100.00
47985;BME280;33753;52.912;-7.342;2023-02-15T04:34:22;100441.03;;;6.43;100.00
47985;BME280;33753;52.912;-7.342;2023-02-15T04:36:52;100446.41;;;6.43;100.00
47985;BME280;33753;52.912;-7.342;2023-02-15T04:39:20;100446.41;;;6.43;100.00
47985;BME280;33753;52.912;-7.342;2023-02-15T04:41:48;100443.72;;;6.43;100.00
47985;BME280;33753;52.912;-7.342;2023-02-15T04:44:17;100448.69;;;6.37;100.00
47985;BME280;33753;52.912;-7.342;2023-02-15T04:46:45;100442.31;;;6.38;100.00
47985;BME280;33753;52.912;-7.342;2023-02-15T04:49:13;100447.81;;;6.37;100.00
47985;BME280;33753;52.912;-7.342;2023-02-15T04:51:41;100445.00;;;6.38;100.00
47985;BME280;33753;52.912;-7.342;2023-02-15T04:54:11;100442.47;;;6.37;100.00
47985;BME280;33753;52.912;-7.342;2023-02-15T04:56:39;100446.69;;;6.39;100.00
47985;BME280;33753;52.912;-7.342;2023-02-15T04:59:09;100450.97;;;6.32;100.00
47985;BME280;33753;52.912;-7.342;2023-02-15T05:01:37;100460.72;;;6.33;100.00
47985;BME280;33753;52.912;-7.342;2023-02-15T05:04:06;100456.34;;;6.32;100.00
47985;BME280;33753;52.912;-7.342;2023-02-15T05:06:34;100452.97;;;6.30;100.00
47985;BME280;33753;52.912;-7.342;2023-02-15T05:09:02;100458.59;;;6.27;100.00
47985;BME280;33753;52.912;-7.342;2023-02-15T05:11:32;100458.59;;;6.27;100.00
47985;BME280;33753;52.912;-7.342;2023-02-15T05:14:00;100458.03;;;6.23;100.00
47985;BME280;33753;52.912;-7.342;2023-02-15T05:16:28;100454.63;;;6.21;100.00
47985;BME280;33753;52.912;-7.342;2023-02-15T05:18:56;100460.88;;;6.22;100.00
47985;BME280;33753;52.912;-7.342;2023-02-15T05:21:25;100462.84;;;6.20;100.00
47985;BME280;33753;52.912;-7.342;2023-02-15T05:23:53;100465.97;;;6.15;100.00
47985;BME280;33753;52.912;-7.342;2023-02-15T05:26:22;100460.75;;;6.14;100.00
47985;BME280;33753;52.912;-7.342;2023-02-15T05:29:09;100462.72;;;6.12;100.00
47985;BME280;33753;52.912;-7.342;2023-02-15T05:31:37;100456.63;;;6.10;100.00
47985;BME280;33753;52.912;-7.342;2023-02-15T05:34:06;100456.63;;;6.10;100.00
47985;BME280;33753;52.912;-7.342;2023-02-15T05:36:34;100457.75;;;6.07;100.00
47985;BME280;33753;52.912;-7.342;2023-02-15T05:39:02;100453.81;;;6.01;100.00
47985;BME280;33753;52.912;-7.342;2023-02-15T05:41:32;100444.38;;;5.97;100.00
47985;BME280;33753;52.912;-7.342;2023-02-15T05:44:00;100445.59;;;5.93;100.00
47985;BME280;33753;52.912;-7.342;2023-02-15T05:46:30;100451.97;;;5.92;100.00
47985;BME280;33753;52.912;-7.342;2023-02-15T05:48:58;100451.22;;;5.90;100.00
47985;BME280;33753;52.912;-7.342;2023-02-15T05:51:27;100443.59;;;5.85;100.00
47985;BME280;33753;52.912;-7.342;2023-02-15T05:53:55;100450.81;;;5.85;100.00
47985;BME280;33753;52.912;-7.342;2023-02-15T05:56:24;100457.03;;;5.85;100.00
47985;BME280;33753;52.912;-7.342;2023-02-15T05:58:52;100458.88;;;5.85;100.00
47985;BME280;33753;52.912;-7.342;2023-02-15T06:01:20;100454.34;;;5.85;100.00
47985;BME280;33753;52.912;-7.342;2023-02-15T06:03:51;100455.22;;;5.86;100.00
47985;BME280;33753;52.912;-7.342;2023-02-15T06:06:21;100462.53;;;5.84;100.00
47985;BME280;33753;52.912;-7.342;2023-02-15T06:08:49;100458.16;;;5.83;100.00
47985;BME280;33753;52.912;-7.342;2023-02-15T06:11:17;100466.50;;;5.80;100.00
47985;BME280;33753;52.912;-7.342;2023-02-15T06:13:45;100459.16;;;5.82;100.00
47985;BME280;33753;52.912;-7.342;2023-02-15T06:16:13;100452.09;;;5.81;100.00
47985;BME280;33753;52.912;-7.342;2023-02-15T06:18:42;100454.09;;;5.79;100.00
47985;BME280;33753;52.912;-7.342;2023-02-15T06:21:12;100443.34;;;5.79;100.00
47985;BME280;33753;52.912;-7.342;2023-02-15T06:23:40;100439.94;;;5.77;100.00
47985;BME280;33753;52.912;-7.342;2023-02-15T06:26:09;100431.19;;;5.75;100.00
47985;BME280;33753;52.912;-7.342;2023-02-15T06:28:38;100429.50;;;5.74;100.00
47985;BME280;33753;52.912;-7.342;2023-02-15T06:31:07;100418.75;;;5.74;100.00
47985;BME280;33753;52.912;-7.342;2023-02-15T06:33:36;100414.50;;;5.71;100.00
47985;BME280;33753;52.912;-7.342;2023-02-15T06:36:04;100424.41;;;5.70;100.00
47985;BME280;33753;52.912;-7.342;2023-02-15T06:38:34;100429.78;;;5.70;100.00
47985;BME280;33753;52.912;-7.342;2023-02-15T06:41:02;100430.91;;;5.68;100.00
47985;BME280;33753;52.912;-7.342;2023-02-15T06:43:31;100426.09;;;5.62;100.00
47985;BME280;33753;52.912;-7.342;2023-02-15T06:46:00;100429.34;;;5.65;100.00
47985;BME280;33753;52.912;-7.342;2023-02-15T06:48:29;100423.28;;;5.63;100.00
47985;BME280;33753;52.912;-7.342;2023-02-15T06:50:57;100423.69;;;5.59;100.00
47985;BME280;33753;52.912;-7.342;2023-02-15T06:53:25;100417.63;;;5.57;100.00
47985;BME280;33753;52.912;-7.342;2023-02-15T06:56:00;100430.72;;;5.50;100.00
47985;BME280;33753;52.912;-7.342;2023-02-15T06:58:33;100441.34;;;5.42;100.00
47985;BME280;33753;52.912;-7.342;2023-02-15T07:01:01;100441.88;;;5.45;100.00
47985;BME280;33753;52.912;-7.342;2023-02-15T07:03:29;100448.38;;;5.43;100.00
47985;BME280;33753;52.912;-7.342;2023-02-15T07:05:58;100454.03;;;5.40;100.00
47985;BME280;33753;52.912;-7.342;2023-02-15T07:08:27;100459.38;;;5.40;100.00
47985;BME280;33753;52.912;-7.342;2023-02-15T07:10:55;100442.72;;;5.36;100.00
47985;BME280;33753;52.912;-7.342;2023-02-15T07:13:46;100446.53;;;5.33;100.00
47985;BME280;33753;52.912;-7.342;2023-02-15T07:16:14;100447.94;;;5.28;100.00
47985;BME280;33753;52.912;-7.342;2023-02-15T07:18:42;100447.47;;;5.23;100.00
47985;BME280;33753;52.912;-7.342;2023-02-15T07:21:10;100450.59;;;5.18;100.00
47985;BME280;33753;52.912;-7.342;2023-02-15T07:23:39;100456.22;;;5.15;100.00
47985;BME280;33753;52.912;-7.342;2023-02-15T07:26:07;100464.69;;;5.10;100.00
47985;BME280;33753;52.912;-7.342;2023-02-15T07:28:35;100477.22;;;5.10;100.00
47985;BME280;33753;52.912;-7.342;2023-02-15T07:31:05;100466.06;;;5.05;100.00
47985;BME280;33753;52.912;-7.342;2023-02-15T07:33:33;100480.00;;;4.98;100.00
47985;BME280;33753;52.912;-7.342;2023-02-15T07:36:02;100486.59;;;4.94;100.00
47985;BME280;33753;52.912;-7.342;2023-02-15T07:38:32;100484.94;;;4.93;100.00
47985;BME280;33753;52.912;-7.342;2023-02-15T07:41:01;100493.06;;;4.82;100.00
47985;BME280;33753;52.912;-7.342;2023-02-15T07:43:30;100490.19;;;4.74;100.00
47985;BME280;33753;52.912;-7.342;2023-02-15T07:46:00;100494.25;;;4.68;100.00
47985;BME280;33753;52.912;-7.342;2023-02-15T07:48:30;100503.66;;;4.62;100.00
47985;BME280;33753;52.912;-7.342;2023-02-15T07:50:59;100510.53;;;4.55;100.00
47985;BME280;33753;52.912;-7.342;2023-02-15T07:53:27;100513.22;;;4.55;100.00
47985;BME280;33753;52.912;-7.342;2023-02-15T07:55:57;100514.00;;;4.46;100.00
47985;BME280;33753;52.912;-7.342;2023-02-15T07:58:26;100521.31;;;4.44;100.00
47985;BME280;33753;52.912;-7.342;2023-02-15T08:01:08;100510.03;;;4.40;100.00
47985;BME280;33753;52.912;-7.342;2023-02-15T08:03:38;100525.50;;;4.37;100.00
47985;BME280;33753;52.912;-7.342;2023-02-15T08:06:06;100527.19;;;4.38;100.00
47985;BME280;33753;52.912;-7.342;2023-02-15T08:08:34;100534.50;;;4.36;100.00
47985;BME280;33753;52.912;-7.342;2023-02-15T08:11:05;100527.94;;;4.28;100.00
47985;BME280;33753;52.912;-7.342;2023-02-15T08:13:51;100538.78;;;4.27;100.00
47985;BME280;33753;52.912;-7.342;2023-02-15T08:16:23;100541.34;;;4.28;100.00
47985;BME280;33753;52.912;-7.342;2023-02-15T08:18:53;100548.53;;;4.28;100.00
47985;BME280;33753;52.912;-7.342;2023-02-15T08:21:22;100539.19;;;4.22;100.00
47985;BME280;33753;52.912;-7.342;2023-02-15T08:23:50;100544.28;;;4.25;100.00
47985;BME280;33753;52.912;-7.342;2023-02-15T08:26:19;100558.91;;;4.21;100.00
47985;BME280;33753;52.912;-7.342;2023-02-15T08:28:47;100553.53;;;4.21;100.00
47985;BME280;33753;52.912;-7.342;2023-02-15T08:31:17;100550.75;;;4.23;100.00
47985;BME280;33753;52.912;-7.342;2023-02-15T08:33:46;100551.59;;;4.23;100.00
47985;BME280;33753;52.912;-7.342;2023-02-15T08:36:17;100548.41;;;4.29;100.00
47985;BME280;33753;52.912;-7.342;2023-02-15T08:38:45;100557.88;;;4.33;100.00
47985;BME280;33753;52.912;-7.342;2023-02-15T08:41:15;100560.78;;;4.42;100.00
47985;BME280;33753;52.912;-7.342;2023-02-15T08:43:43;100574.63;;;4.47;100.00
47985;BME280;33753;52.912;-7.342;2023-02-15T08:46:12;100571.88;;;4.58;100.00
47985;BME280;33753;52.912;-7.342;2023-02-15T08:48:40;100578.41;;;4.65;100.00
47985;BME280;33753;52.912;-7.342;2023-02-15T08:51:10;100583.28;;;4.72;100.00
47985;BME280;33753;52.912;-7.342;2023-02-15T08:53:40;100583.31;;;4.81;100.00
47985;BME280;33753;52.912;-7.342;2023-02-15T08:56:10;100584.19;;;4.82;100.00
47985;BME280;33753;52.912;-7.342;2023-02-15T08:58:38;100587.56;;;4.84;100.00
47985;BME280;33753;52.912;-7.342;2023-02-15T09:01:10;100595.47;;;4.85;100.00
47985;BME280;33753;52.912;-7.342;2023-02-15T09:03:39;100592.41;;;4.90;100.00
47985;BME280;33753;52.912;-7.342;2023-02-15T09:06:07;100592.91;;;5.05;100.00
47985;BME280;33753;52.912;-7.342;2023-02-15T09:08:35;100593.41;;;5.20;100.00
47985;BME280;33753;52.912;-7.342;2023-02-15T09:11:05;100593.19;;;5.33;100.00
47985;BME280;33753;52.912;-7.342;2023-02-15T09:13:33;100595.50;;;5.38;100.00
47985;BME280;33753;52.912;-7.342;2023-02-15T09:16:02;100591.78;;;5.29;100.00
47985;BME280;33753;52.912;-7.342;2023-02-15T09:18:32;100599.22;;;5.25;100.00
47985;BME280;33753;52.912;-7.342;2023-02-15T09:21:05;100592.34;;;5.32;100.00
47985;BME280;33753;52.912;-7.342;2023-02-15T09:23:36;100595.63;;;5.46;100.00
47985;BME280;33753;52.912;-7.342;2023-02-15T09:26:07;100607.72;;;5.61;100.00
47985;BME280;33753;52.912;-7.342;2023-02-15T09:28:36;100609.44;;;5.72;100.00
47985;BME280;33753;52.912;-7.342;2023-02-15T09:31:05;100617.38;;;5.74;100.00
47985;BME280;33753;52.912;-7.342;2023-02-15T09:33:34;100605.78;;;5.83;100.00
47985;BME280;33753;52.912;-7.342;2023-02-15T09:36:02;100613.25;;;6.00;100.00
47985;BME280;33753;52.912;-7.342;2023-02-15T09:38:30;100611.84;;;6.35;100.00
47985;BME280;33753;52.912;-7.342;2023-02-15T09:41:03;100616.38;;;6.84;100.00
47985;BME280;33753;52.912;-7.342;2023-02-15T09:43:38;100610.88;;;7.33;100.00
47985;BME280;33753;52.912;-7.342;2023-02-15T09:46:14;100607.88;;;8.01;100.00
47985;BME280;33753;52.912;-7.342;2023-02-15T09:48:47;100602.84;;;8.52;100.00
47985;BME280;33753;52.912;-7.342;2023-02-15T09:54:07;100582.03;;;9.67;100.00
47985;BME280;33753;52.912;-7.342;2023-02-15T09:56:38;100562.34;;;9.92;100.00
47985;BME280;33753;52.912;-7.342;2023-02-15T09:59:11;100547.94;;;10.50;100.00
47985;BME280;33753;52.912;-7.342;2023-02-15T10:01:44;100540.28;;;10.87;100.00
47985;BME280;33753;52.912;-7.342;2023-02-15T10:04:24;100538.63;;;11.42;100.00
47985;BME280;33753;52.912;-7.342;2023-02-15T10:07:00;100526.19;;;11.87;100.00
47985;BME280;33753;52.912;-7.342;2023-02-15T10:09:36;100508.63;;;11.83;100.00
47985;BME280;33753;52.912;-7.342;2023-02-15T10:12:23;100491.88;;;12.26;100.00
47985;BME280;33753;52.912;-7.342;2023-02-15T10:15:03;100508.50;;;12.69;100.00
47985;BME280;33753;52.912;-7.342;2023-02-15T10:17:40;100494.56;;;12.87;100.00
47985;BME280;33753;52.912;-7.342;2023-02-15T10:20:13;100489.69;;;13.27;100.00
47985;BME280;33753;52.912;-7.342;2023-02-15T10:22:49;100482.59;;;13.26;100.00
47985;BME280;33753;52.912;-7.342;2023-02-15T10:25:31;100478.81;;;13.57;100.00
47985;BME280;33753;52.912;-7.342;2023-02-15T10:28:03;100482.53;;;13.71;100.00
47985;BME280;33753;52.912;-7.342;2023-02-15T10:30:35;100471.31;;;13.59;100.00
47985;BME280;33753;52.912;-7.342;2023-02-15T10:33:09;100484.69;;;13.97;100.00
47985;BME280;33753;52.912;-7.342;2023-02-15T10:35:41;100484.91;;;14.17;100.00
47985;BME280;33753;52.912;-7.342;2023-02-15T10:38:20;100473.44;;;13.79;100.00
47985;BME280;33753;52.912;-7.342;2023-02-15T10:40:53;100471.31;;;13.59;100.00
47985;BME280;33753;52.912;-7.342;2023-02-15T10:43:31;100466.28;;;13.56;100.00
47985;BME280;33753;52.912;-7.342;2023-02-15T10:46:08;100487.19;;;12.96;100.00
47985;BME280;33753;52.912;-7.342;2023-02-15T10:48:46;100479.03;;;12.43;100.00
47985;BME280;33753;52.912;-7.342;2023-02-15T10:51:22;100493.50;;;12.20;100.00
47985;BME280;33753;52.912;-7.342;2023-02-15T10:54:04;100494.94;;;12.08;100.00
47985;BME280;33753;52.912;-7.342;2023-02-15T10:56:35;100509.88;;;12.04;100.00
47985;BME280;33753;52.912;-7.342;2023-02-15T10:59:17;100508.34;;;11.70;100.00
47985;BME280;33753;52.912;-7.342;2023-02-15T11:01:53;100511.09;;;11.62;100.00
47985;BME280;33753;52.912;-7.342;2023-02-15T11:04:30;100508.13;;;11.48;100.00
47985;BME280;33753;52.912;-7.342;2023-02-15T11:07:06;100518.78;;;11.50;100.00
47985;BME280;33753;52.912;-7.342;2023-02-15T11:09:37;100518.91;;;11.56;100.00
47985;BME280;33753;52.912;-7.342;2023-02-15T11:12:09;100519.19;;;11.70;100.00
47985;BME280;33753;52.912;-7.342;2023-02-15T11:14:43;100517.22;;;11.95;100.00
47985;BME280;33753;52.912;-7.342;2023-02-15T11:17:17;100508.31;;;12.09;100.00
47985;BME280;33753;52.912;-7.342;2023-02-15T11:19:49;100510.31;;;12.92;100.00
47985;BME280;33753;52.912;-7.342;2023-02-15T11:22:22;100509.31;;;13.38;100.00
47985;BME280;33753;52.912;-7.342;2023-02-15T11:24:51;100504.25;;;13.86;100.00
47985;BME280;33753;52.912;-7.342;2023-02-15T11:27:21;100504.97;;;14.16;100.00
47985;BME280;33753;52.912;-7.342;2023-02-15T11:29:57;100505.41;;;13.98;100.00
47985;BME280;33753;52.912;-7.342;2023-02-15T11:32:28;100494.00;;;14.31;100.00
47985;BME280;33753;52.912;-7.342;2023-02-15T11:35:00;100497.13;;;13.85;100.00
47985;BME280;33753;52.912;-7.342;2023-02-15T11:37:35;100498.94;;;13.99;100.00
47985;BME280;33753;52.912;-7.342;2023-02-15T11:40:12;100500.38;;;14.17;100.00
47985;BME280;33753;52.912;-7.342;2023-02-15T11:42:43;100500.13;;;14.12;100.00
47985;BME280;33753;52.912;-7.342;2023-02-15T11:45:16;100505.69;;;14.04;100.00
47985;BME280;33753;52.912;-7.342;2023-02-15T11:47:49;100499.56;;;13.80;100.00
47985;BME280;33753;52.912;-7.342;2023-02-15T11:50:19;100511.81;;;13.54;100.00
47985;BME280;33753;52.912;-7.342;2023-02-15T11:52:50;100492.78;;;13.24;100.00
47985;BME280;33753;52.912;-7.342;2023-02-15T11:55:23;100502.81;;;13.39;100.00
47985;BME280;33753;52.912;-7.342;2023-02-15T11:57:53;100501.78;;;13.25;100.00
47985;BME280;33753;52.912;-7.342;2023-02-15T12:00:26;100493.19;;;13.36;100.00
47985;BME280;33753;52.912;-7.342;2023-02-15T12:03:22;100487.09;;;13.19;100.00
47985;BME280;33753;52.912;-7.342;2023-02-15T12:05:56;100482.28;;;12.91;100.00
47985;BME280;33753;52.912;-7.342;2023-02-15T12:08:26;100488.97;;;13.04;100.00
47985;BME280;33753;52.912;-7.342;2023-02-15T12:11:02;100496.50;;;12.78;100.00
47985;BME280;33753;52.912;-7.342;2023-02-15T12:13:33;100498.66;;;12.83;100.00
47985;BME280;33753;52.912;-7.342;2023-02-15T12:16:04;100485.72;;;12.55;100.00
47985;BME280;33753;52.912;-7.342;2023-02-15T12:18:39;100494.88;;;12.54;100.00
47985;BME280;33753;52.912;-7.342;2023-02-15T12:21:08;100485.19;;;12.37;100.00
47985;BME280;33753;52.912;-7.342;2023-02-15T12:23:40;100489.19;;;12.64;100.00
47985;BME280;33753;52.912;-7.342;2023-02-15T12:26:09;100473.69;;;13.03;100.00
47985;BME280;33753;52.912;-7.342;2023-02-15T12:28:39;100480.72;;;13.42;100.00
47985;BME280;33753;52.912;-7.342;2023-02-15T12:31:10;100480.13;;;13.83;100.00
47985;BME280;33753;52.912;-7.342;2023-02-15T12:33:48;100473.16;;;13.74;100.00
47985;BME280;33753;52.912;-7.342;2023-02-15T12:36:19;100470.91;;;13.99;100.00
47985;BME280;33753;52.912;-7.342;2023-02-15T12:39:02;100459.06;;;14.07;100.00
47985;BME280;33753;52.912;-7.342;2023-02-15T12:41:31;100458.91;;;14.37;100.00
47985;BME280;33753;52.912;-7.342;2023-02-15T12:44:04;100452.88;;;14.41;100.00
47985;BME280;33753;52.912;-7.342;2023-02-15T12:46:33;100436.63;;;14.26;100.00
47985;BME280;33753;52.912;-7.342;2023-02-15T12:49:06;100454.88;;;14.32;100.00
47985;BME280;33753;52.912;-7.342;2023-02-15T12:51:42;100448.56;;;14.25;100.00
47985;BME280;33753;52.912;-7.342;2023-02-15T12:54:31;100441.44;;;13.81;100.00
47985;BME280;33753;52.912;-7.342;2023-02-15T12:57:13;100444.06;;;13.53;100.00
47985;BME280;33753;52.912;-7.342;2023-02-15T12:59:48;100442.94;;;13.47;100.00
47985;BME280;33753;52.912;-7.342;2023-02-15T13:02:25;100444.09;;;13.08;100.00
47985;BME280;33753;52.912;-7.342;2023-02-15T13:04:56;100446.72;;;13.01;100.00
47985;BME280;33753;52.912;-7.342;2023-02-15T13:07:29;100446.91;;;13.00;100.00